Time;durP1;ratioP1;P1;durP2;ratioP2;P2;SDS_P1;SDS_P2;PMS_P1;PMS_P2;Temp;Humidity;BMP_temperature;BMP_pressure;BME280_temperature;BME280_humidity;BME280_pressure;Samples;Min_cycle;Max_cycle;Signal;HPM_P1;HPM_P2
2023/09/27 00:02:16;;;;;;;0.10;0.10;;;;;;;;;;4964052;28;20126;-78
2023/09/27 00:04:43;;;;;;;0.20;0.20;;;;;;;;;;4963348;28;20062;-78
2023/09/27 00:07:11;;;;;;;0.30;0.30;;;;;;;;;;4966164;28;20054;-78
2023/09/27 00:09:39;;;;;;;0.15;0.15;;;;;;;;;;4963756;28;20421;-78
2023/09/27 00:12:07;;;;;;;0.55;0.55;;;;;;;;;;4964808;28;20047;-78
2023/09/27 00:14:34;;;;;;;0.98;0.90;;;;;;;;;;4962560;28;20045;-78
2023/09/27 00:17:03;;;;;;;0.30;0.30;;;;;;;;;;4962990;28;20050;-78
2023/09/27 00:19:31;;;;;;;0.50;0.50;;;;;;;;;;4960216;28;20039;-78
2023/09/27 00:21:58;;;;;;;0.85;0.55;;;;;;;;;;4961938;28;20129;-78
2023/09/27 00:24:25;;;;;;;0.60;0.60;;;;;;;;;;4963636;28;20070;-78
2023/09/27 00:26:54;;;;;;;5.78;5.43;;;;;;;;;;4964953;28;20101;-78
2023/09/27 00:29:22;;;;;;;1.17;1.17;;;;;;;;;;4964174;28;20494;-78
2023/09/27 00:31:49;;;;;;;0.68;0.68;;;;;;;;;;4964693;28;20148;-78
2023/09/27 00:34:17;;;;;;;2.45;2.25;;;;;;;;;;4941377;28;20047;-78
2023/09/27 00:36:45;;;;;;;0.00;0.00;;;;;;;;;;4965755;28;20050;-78
2023/09/27 00:39:12;;;;;;;1.40;0.47;;;;;;;;;;4965458;28;20054;-77
2023/09/27 00:41:40;;;;;;;0.40;0.40;;;;;;;;;;4963068;28;20039;-78
2023/09/27 00:44:07;;;;;;;0.50;0.45;;;;;;;;;;4965067;28;20051;-78
2023/09/27 00:46:35;;;;;;;0.75;0.55;;;;;;;;;;4964987;28;20043;-78
2023/09/27 00:49:03;;;;;;;0.63;0.60;;;;;;;;;;4961993;28;20146;-78
2023/09/27 00:51:31;;;;;;;0.00;0.00;;;;;;;;;;4960733;28;20054;-78
2023/09/27 00:53:59;;;;;;;1.15;0.63;;;;;;;;;;4963202;28;20054;-78
2023/09/27 00:56:27;;;;;;;0.15;0.15;;;;;;;;;;4963985;28;20489;-78
2023/09/27 00:58:54;;;;;;;0.30;0.30;;;;;;;;;;4963565;28;20051;-78
2023/09/27 01:01:25;;;;;;;0.28;0.28;;;;;;;;;;4965329;28;20489;-78
2023/09/27 01:03:53;;;;;;;0.63;0.47;;;;;;;;;;4966970;28;20163;-78
2023/09/27 01:06:21;;;;;;;0.13;0.13;;;;;;;;;;4969884;28;20050;-78
2023/09/27 01:08:49;;;;;;;0.47;0.47;;;;;;;;;;4966058;28;20059;-78
2023/09/27 01:11:17;;;;;;;0.25;0.25;;;;;;;;;;4949157;28;20047;-78
2023/09/27 01:13:44;;;;;;;0.30;0.30;;;;;;;;;;4965733;28;20203;-78
2023/09/27 01:16:11;;;;;;;0.00;0.00;;;;;;;;;;4968021;28;20054;-78
2023/09/27 01:18:40;;;;;;;0.28;0.13;;;;;;;;;;4968712;28;20045;-78
2023/09/27 01:21:07;;;;;;;0.15;0.15;;;;;;;;;;4952417;28;20043;-78
2023/09/27 01:23:37;;;;;;;0.90;0.80;;;;;;;;;;4968825;28;20386;-78
2023/09/27 01:26:07;;;;;;;0.28;0.28;;;;;;;;;;4965400;28;20516;-78
2023/09/27 01:28:36;;;;;;;0.38;0.38;;;;;;;;;;4970104;28;20133;-78
2023/09/27 01:31:03;;;;;;;0.30;0.20;;;;;;;;;;4966941;28;20125;-78
2023/09/27 01:33:31;;;;;;;0.00;0.00;;;;;;;;;;4966617;28;20097;-78
2023/09/27 01:35:59;;;;;;;0.10;0.10;;;;;;;;;;4967957;28;20062;-78
2023/09/27 01:38:27;;;;;;;11.23;10.52;;;;;;;;;;4963771;28;20043;-78
2023/09/27 01:40:54;;;;;;;0.10;0.10;;;;;;;;;;4966405;28;20114;-78
2023/09/27 01:43:22;;;;;;;0.28;0.28;;;;;;;;;;4965209;28;20057;-78
2023/09/27 01:45:49;;;;;;;0.10;0.10;;;;;;;;;;4966784;28;20322;-78
2023/09/27 01:48:20;;;;;;;0.20;0.20;;;;;;;;;;4967076;28;20050;-78
2023/09/27 01:50:48;;;;;;;0.00;0.00;;;;;;;;;;4967881;28;20065;-78
2023/09/27 01:53:17;;;;;;;0.25;0.25;;;;;;;;;;4967044;28;20047;-78
2023/09/27 01:55:47;;;;;;;0.00;0.00;;;;;;;;;;4966979;28;20090;-78
2023/09/27 01:58:14;;;;;;;0.00;0.00;;;;;;;;;;4966149;28;20042;-78
2023/09/27 02:00:42;;;;;;;0.00;0.00;;;;;;;;;;4966509;28;20047;-78
2023/09/27 02:03:10;;;;;;;0.10;0.10;;;;;;;;;;4967499;28;20057;-78
2023/09/27 02:05:37;;;;;;;1.55;0.63;;;;;;;;;;4969350;28;20057;-78
2023/09/27 02:08:06;;;;;;;0.20;0.20;;;;;;;;;;4965926;28;20050;-78
2023/09/27 02:10:34;;;;;;;0.30;0.30;;;;;;;;;;4964512;28;20117;-78
2023/09/27 02:13:02;;;;;;;0.20;0.13;;;;;;;;;;4967303;28;20051;-78
2023/09/27 02:15:30;;;;;;;0.10;0.10;;;;;;;;;;4963721;28;20054;-78
2023/09/27 02:17:57;;;;;;;0.10;0.10;;;;;;;;;;4967007;28;20512;-78
2023/09/27 02:20:25;;;;;;;0.00;0.00;;;;;;;;;;4967826;28;20122;-78
2023/09/27 02:22:54;;;;;;;0.08;0.08;;;;;;;;;;4964212;28;20058;-78
2023/09/27 02:25:22;;;;;;;0.20;0.20;;;;;;;;;;4966969;28;20114;-78
2023/09/27 02:27:50;;;;;;;0.03;0.03;;;;;;;;;;4966092;28;20051;-78
2023/09/27 02:30:17;;;;;;;0.38;0.38;;;;;;;;;;4964327;28;20041;-78
2023/09/27 02:32:45;;;;;;;0.40;0.40;;;;;;;;;;4964518;28;20086;-78
2023/09/27 02:35:13;;;;;;;0.00;0.00;;;;;;;;;;4967454;28;20047;-78
2023/09/27 02:37:43;;;;;;;0.25;0.25;;;;;;;;;;4966873;28;20097;-78
2023/09/27 02:40:11;;;;;;;0.00;0.00;;;;;;;;;;4966180;28;20054;-78
2023/09/27 02:42:40;;;;;;;0.10;0.10;;;;;;;;;;4965614;28;20493;-78
2023/09/27 02:45:12;;;;;;;0.00;0.00;;;;;;;;;;4964730;28;20046;-78
2023/09/27 02:47:43;;;;;;;0.10;0.10;;;;;;;;;;4966343;28;20050;-78
2023/09/27 02:50:12;;;;;;;0.38;0.38;;;;;;;;;;4976999;28;20059;-78
2023/09/27 02:52:40;;;;;;;0.00;0.00;;;;;;;;;;4967483;28;20070;-78
2023/09/27 02:55:11;;;;;;;17.25;15.60;;;;;;;;;;4962555;28;20070;-78
2023/09/27 02:57:39;;;;;;;0.05;0.05;;;;;;;;;;4966113;28;20192;-78
2023/09/27 03:00:08;;;;;;;0.00;0.00;;;;;;;;;;4965523;28;20493;-78
2023/09/27 03:02:37;;;;;;;0.65;0.65;;;;;;;;;;4965959;28;20061;-78
2023/09/27 03:05:07;;;;;;;0.20;0.20;;;;;;;;;;4963814;28;20078;-78
2023/09/27 03:07:38;;;;;;;0.00;0.00;;;;;;;;;;4964013;28;20393;-78
2023/09/27 03:10:08;;;;;;;0.00;0.00;;;;;;;;;;4963442;28;20050;-78
2023/09/27 03:12:38;;;;;;;0.00;0.00;;;;;;;;;;4962760;28;20130;-78
2023/09/27 03:15:10;;;;;;;0.10;0.10;;;;;;;;;;4939164;28;20047;-78
2023/09/27 03:17:40;;;;;;;0.00;0.00;;;;;;;;;;4967046;28;20047;-78
2023/09/27 03:20:16;;;;;;;0.00;0.00;;;;;;;;;;4961152;28;21614;-78
2023/09/27 03:22:45;;;;;;;0.00;0.00;;;;;;;;;;4964550;28;20054;-78
2023/09/27 03:25:12;;;;;;;0.30;0.30;;;;;;;;;;4964175;28;20046;-78
2023/09/27 03:27:40;;;;;;;14.82;13.25;;;;;;;;;;4964591;28;20039;-78
2023/09/27 03:30:07;;;;;;;0.30;0.30;;;;;;;;;;4967777;28;20051;-78
2023/09/27 03:32:38;;;;;;;0.00;0.00;;;;;;;;;;4963835;28;20052;-78
2023/09/27 03:35:07;;;;;;;0.00;0.00;;;;;;;;;;4966229;28;20519;-78
2023/09/27 03:37:35;;;;;;;0.30;0.30;;;;;;;;;;4962290;28;20047;-78
2023/09/27 03:40:13;;;;;;;0.25;0.25;;;;;;;;;;4964265;28;20074;-78
2023/09/27 03:42:43;;;;;;;0.00;0.00;;;;;;;;;;4966056;28;20524;-78
2023/09/27 03:45:12;;;;;;;12.27;11.10;;;;;;;;;;4959411;28;20066;-78
2023/09/27 03:47:43;;;;;;;0.00;0.00;;;;;;;;;;4965214;28;20300;-78
2023/09/27 03:50:12;;;;;;;0.08;0.08;;;;;;;;;;4961693;28;20051;-78
2023/09/27 03:52:40;;;;;;;3.60;3.40;;;;;;;;;;4964944;28;20066;-78
2023/09/27 03:55:08;;;;;;;0.00;0.00;;;;;;;;;;4964745;28;20066;-78
2023/09/27 03:57:37;;;;;;;0.00;0.00;;;;;;;;;;4967489;28;20058;-78
2023/09/27 04:00:13;;;;;;;0.00;0.00;;;;;;;;;;4964926;28;20054;-78
2023/09/27 04:02:42;;;;;;;0.00;0.00;;;;;;;;;;4979163;28;20572;-78
2023/09/27 04:05:11;;;;;;;0.00;0.00;;;;;;;;;;4955974;28;20512;-78
2023/09/27 04:07:39;;;;;;;0.47;0.43;;;;;;;;;;4962648;28;20047;-79
2023/09/27 04:10:07;;;;;;;0.00;0.00;;;;;;;;;;4967128;28;20424;-78
2023/09/27 04:12:36;;;;;;;0.65;0.35;;;;;;;;;;4964683;28;20047;-78
2023/09/27 04:15:10;;;;;;;0.00;0.00;;;;;;;;;;4961210;28;20097;-78
2023/09/27 04:17:38;;;;;;;10.88;10.23;;;;;;;;;;4967200;28;20466;-79
2023/09/27 04:20:17;;;;;;;0.20;0.20;;;;;;;;;;4967346;28;20047;-78
2023/09/27 04:22:48;;;;;;;0.00;0.00;;;;;;;;;;4961429;28;20616;-78
2023/09/27 04:25:15;;;;;;;0.75;0.22;;;;;;;;;;4965939;28;20078;-78
2023/09/27 04:27:45;;;;;;;0.00;0.00;;;;;;;;;;4963296;28;22458;-78
2023/09/27 04:30:14;;;;;;;0.10;0.10;;;;;;;;;;4976993;28;20055;-78
2023/09/27 04:32:44;;;;;;;2.85;2.75;;;;;;;;;;4964028;28;20045;-78
2023/09/27 04:35:13;;;;;;;0.00;0.00;;;;;;;;;;4964479;28;20051;-78
2023/09/27 04:37:41;;;;;;;0.03;0.03;;;;;;;;;;4963957;28;20376;-78
2023/09/27 04:40:11;;;;;;;0.00;0.00;;;;;;;;;;4967869;28;20046;-78
2023/09/27 04:42:41;;;;;;;0.00;0.00;;;;;;;;;;4969900;28;20131;-78
2023/09/27 04:45:13;;;;;;;0.20;0.20;;;;;;;;;;4963293;28;20047;-78
2023/09/27 04:47:41;;;;;;;0.47;0.47;;;;;;;;;;4966612;28;20495;-78
2023/09/27 04:50:09;;;;;;;0.00;0.00;;;;;;;;;;4967897;28;20137;-78
2023/09/27 04:52:38;;;;;;;0.13;0.10;;;;;;;;;;4969340;28;20105;-78
2023/09/27 04:55:06;;;;;;;0.30;0.30;;;;;;;;;;4968187;28;20047;-78
2023/09/27 04:57:33;;;;;;;0.50;0.50;;;;;;;;;;4970139;28;20314;-78
2023/09/27 05:00:01;;;;;;;0.03;0.03;;;;;;;;;;4965060;28;20163;-78
2023/09/27 05:02:28;;;;;;;0.93;0.93;;;;;;;;;;4967141;28;20073;-78
2023/09/27 05:04:56;;;;;;;8.55;8.02;;;;;;;;;;4965027;28;20045;-78
2023/09/27 05:07:24;;;;;;;2.65;2.55;;;;;;;;;;4967510;28;20445;-79
2023/09/27 05:09:52;;;;;;;0.20;0.20;;;;;;;;;;4961423;28;20125;-77
2023/09/27 05:12:20;;;;;;;0.20;0.20;;;;;;;;;;4975246;28;20521;-77
2023/09/27 05:14:47;;;;;;;0.05;0.05;;;;;;;;;;4964616;28;20185;-77
2023/09/27 05:17:15;;;;;;;9.05;8.52;;;;;;;;;;4960643;28;20043;-77
2023/09/27 05:19:43;;;;;;;0.35;0.35;;;;;;;;;;4965339;28;20130;-77
2023/09/27 05:22:11;;;;;;;0.25;0.25;;;;;;;;;;4962372;28;20087;-78
2023/09/27 05:24:39;;;;;;;0.30;0.20;;;;;;;;;;4967218;28;20050;-78
2023/09/27 05:27:07;;;;;;;0.00;0.00;;;;;;;;;;4967344;28;20138;-78
2023/09/27 05:29:35;;;;;;;0.95;0.60;;;;;;;;;;4967692;28;20082;-78
2023/09/27 05:32:03;;;;;;;0.10;0.10;;;;;;;;;;4968973;28;20050;-78
2023/09/27 05:34:31;;;;;;;1.05;0.95;;;;;;;;;;4963455;28;20078;-78
2023/09/27 05:36:58;;;;;;;0.17;0.17;;;;;;;;;;4969545;28;20054;-77
2023/09/27 05:39:27;;;;;;;0.63;0.63;;;;;;;;;;4964500;28;20046;-78
2023/09/27 05:41:54;;;;;;;0.47;0.47;;;;;;;;;;4959140;28;20246;-78
2023/09/27 05:44:22;;;;;;;0.15;0.15;;;;;;;;;;4952610;28;20062;-75
2023/09/27 05:46:49;;;;;;;0.10;0.10;;;;;;;;;;4962885;28;20070;-77
2023/09/27 05:49:18;;;;;;;0.20;0.20;;;;;;;;;;4960551;28;20043;-78
2023/09/27 05:51:45;;;;;;;0.00;0.00;;;;;;;;;;4961385;28;20571;-78
2023/09/27 05:54:14;;;;;;;0.13;0.13;;;;;;;;;;4959069;28;20055;-78
2023/09/27 05:56:45;;;;;;;7.65;7.18;;;;;;;;;;4956136;28;20142;-79
2023/09/27 05:59:14;;;;;;;0.00;0.00;;;;;;;;;;4965990;28;20051;-78
2023/09/27 06:01:42;;;;;;;0.15;0.15;;;;;;;;;;4965236;28;20445;-78
2023/09/27 06:04:10;;;;;;;29.80;27.65;;;;;;;;;;4957447;28;20424;-78
2023/09/27 06:06:39;;;;;;;0.50;0.50;;;;;;;;;;4962430;28;20047;-77
2023/09/27 06:09:09;;;;;;;0.00;0.00;;;;;;;;;;4960964;28;20043;-78
2023/09/27 06:11:36;;;;;;;0.00;0.00;;;;;;;;;;4959878;28;20126;-78
2023/09/27 06:14:10;;;;;;;0.00;0.00;;;;;;;;;;4964068;28;20118;-77
2023/09/27 06:16:38;;;;;;;0.30;0.30;;;;;;;;;;4969741;28;20051;-77
2023/09/27 06:19:08;;;;;;;0.00;0.00;;;;;;;;;;4965459;28;20046;-78
2023/09/27 06:21:35;;;;;;;0.03;0.03;;;;;;;;;;4969499;28;20054;-77
2023/09/27 06:24:03;;;;;;;0.00;0.00;;;;;;;;;;4968018;28;20039;-77
2023/09/27 06:26:31;;;;;;;0.20;0.20;;;;;;;;;;4968943;28;20473;-78
2023/09/27 06:28:58;;;;;;;0.20;0.20;;;;;;;;;;4968772;28;20058;-78
2023/09/27 06:31:27;;;;;;;0.28;0.28;;;;;;;;;;4970610;28;20475;-77
2023/09/27 06:33:54;;;;;;;11.57;10.95;;;;;;;;;;4968703;28;20046;-77
2023/09/27 06:36:22;;;;;;;0.25;0.22;;;;;;;;;;4968724;28;20560;-78
2023/09/27 06:38:50;;;;;;;0.10;0.10;;;;;;;;;;4967513;28;20075;-78
2023/09/27 06:41:18;;;;;;;0.10;0.10;;;;;;;;;;4967894;28;20082;-78
2023/09/27 06:43:46;;;;;;;0.20;0.20;;;;;;;;;;4968794;28;20140;-77
2023/09/27 06:46:15;;;;;;;0.10;0.10;;;;;;;;;;4966428;28;20039;-77
2023/09/27 06:48:44;;;;;;;0.38;0.38;;;;;;;;;;4967642;28;20473;-77
2023/09/27 06:51:13;;;;;;;0.00;0.00;;;;;;;;;;4964617;28;20490;-77
2023/09/27 06:53:42;;;;;;;4.13;3.92;;;;;;;;;;4967915;28;20110;-78
2023/09/27 06:56:10;;;;;;;0.00;0.00;;;;;;;;;;4966799;28;20054;-78
2023/09/27 06:58:37;;;;;;;27.67;25.13;;;;;;;;;;4968827;28;20137;-78
2023/09/27 07:01:05;;;;;;;0.80;0.80;;;;;;;;;;4967944;28;20058;-78
2023/09/27 07:03:35;;;;;;;0.93;0.93;;;;;;;;;;4963551;28;20055;-78
2023/09/27 07:06:03;;;;;;;0.52;0.52;;;;;;;;;;4965547;28;20047;-78
2023/09/27 07:08:31;;;;;;;0.00;0.00;;;;;;;;;;4965438;28;20157;-78
2023/09/27 07:11:05;;;;;;;1.42;1.38;;;;;;;;;;4968441;28;20082;-78
2023/09/27 07:13:33;;;;;;;0.30;0.30;;;;;;;;;;4968277;28;20610;-78
2023/09/27 07:16:00;;;;;;;2.80;2.70;;;;;;;;;;4964176;28;20576;-77
2023/09/27 07:18:27;;;;;;;0.00;0.00;;;;;;;;;;4967740;28;20105;-78
2023/09/27 07:20:56;;;;;;;0.20;0.20;;;;;;;;;;4963676;28;20414;-78
2023/09/27 07:23:26;;;;;;;2.28;1.08;;;;;;;;;;4968839;28;20476;-78
2023/09/27 07:25:54;;;;;;;5.70;5.43;;;;;;;;;;4968251;28;20046;-78
2023/09/27 07:28:22;;;;;;;0.00;0.00;;;;;;;;;;4969178;28;20225;-78
2023/09/27 07:30:49;;;;;;;0.13;0.13;;;;;;;;;;4966767;28;20046;-77
2023/09/27 07:33:17;;;;;;;9.70;9.23;;;;;;;;;;4964873;28;20120;-78
2023/09/27 07:35:46;;;;;;;0.00;0.00;;;;;;;;;;4968163;28;20055;-78
2023/09/27 07:38:13;;;;;;;0.10;0.10;;;;;;;;;;4968440;28;20171;-78
2023/09/27 07:40:45;;;;;;;0.10;0.10;;;;;;;;;;4973252;28;20060;-78
2023/09/27 07:43:14;;;;;;;0.00;0.00;;;;;;;;;;4967219;28;20054;-78
2023/09/27 07:45:43;;;;;;;0.30;0.30;;;;;;;;;;4968296;28;20130;-77
2023/09/27 07:48:10;;;;;;;0.17;0.17;;;;;;;;;;4975135;28;20038;-78
2023/09/27 07:50:38;;;;;;;0.70;0.70;;;;;;;;;;4969786;28;20069;-78
2023/09/27 07:53:08;;;;;;;0.30;0.30;;;;;;;;;;4975029;28;20128;-78
2023/09/27 07:55:50;;;;;;;0.38;0.38;;;;;;;;;;4975743;28;20081;-78
2023/09/27 07:58:18;;;;;;;0.17;0.17;;;;;;;;;;4967381;28;20187;-78
2023/09/27 08:00:45;;;;;;;0.00;0.00;;;;;;;;;;4969576;28;20063;-78
2023/09/27 08:03:14;;;;;;;0.20;0.20;;;;;;;;;;4966469;28;20413;-78
2023/09/27 08:05:43;;;;;;;0.15;0.15;;;;;;;;;;4963871;28;20046;-78
2023/09/27 08:08:12;;;;;;;0.00;0.00;;;;;;;;;;4974328;28;20121;-77
2023/09/27 08:10:47;;;;;;;0.08;0.08;;;;;;;;;;4974074;28;20069;-78
2023/09/27 08:13:15;;;;;;;0.10;0.10;;;;;;;;;;4978072;28;20058;-77
2023/09/27 08:15:43;;;;;;;0.00;0.00;;;;;;;;;;4975274;28;20162;-78
2023/09/27 08:18:10;;;;;;;5.78;5.47;;;;;;;;;;4979473;28;20050;-78
2023/09/27 08:20:38;;;;;;;0.38;0.38;;;;;;;;;;4972884;28;20125;-78
2023/09/27 08:23:06;;;;;;;0.00;0.00;;;;;;;;;;4974982;28;20043;-78
2023/09/27 08:25:33;;;;;;;0.43;0.43;;;;;;;;;;4978323;28;20051;-77
2023/09/27 08:28:02;;;;;;;0.32;0.32;;;;;;;;;;4978891;28;20082;-78
2023/09/27 08:30:29;;;;;;;0.00;0.00;;;;;;;;;;4970822;28;20109;-78
2023/09/27 08:32:56;;;;;;;0.08;0.08;;;;;;;;;;4977478;28;20551;-78
2023/09/27 08:35:25;;;;;;;17.73;16.33;;;;;;;;;;4971332;28;20113;-77
2023/09/27 08:37:52;;;;;;;1.17;0.80;;;;;;;;;;4999794;22;20053;-72
2023/09/27 08:40:21;;;;;;;0.20;0.20;;;;;;;;;;5002477;28;20133;-73
2023/09/27 08:42:50;;;;;;;0.28;0.10;;;;;;;;;;5006895;28;20093;-72
2023/09/27 08:45:22;;;;;;;0.10;0.10;;;;;;;;;;5001430;28;20057;-72
2023/09/27 08:47:50;;;;;;;0.00;0.00;;;;;;;;;;4992137;28;20050;-75
2023/09/27 08:50:18;;;;;;;0.08;0.08;;;;;;;;;;4986636;28;20100;-75
2023/09/27 08:52:47;;;;;;;0.00;0.00;;;;;;;;;;4992672;28;20356;-74
2023/09/27 08:55:15;;;;;;;29.88;27.45;;;;;;;;;;4997633;28;20088;-74
2023/09/27 08:57:47;;;;;;;0.20;0.20;;;;;;;;;;5000189;28;20041;-75
2023/09/27 09:00:15;;;;;;;0.00;0.00;;;;;;;;;;5006768;28;20053;-75
2023/09/27 09:02:44;;;;;;;0.43;0.43;;;;;;;;;;4998757;28;20054;-76
2023/09/27 09:05:12;;;;;;;0.00;0.00;;;;;;;;;;4997395;28;20561;-75
2023/09/27 09:07:43;;;;;;;0.00;0.00;;;;;;;;;;4989470;28;20125;-76
2023/09/27 09:10:13;;;;;;;0.00;0.00;;;;;;;;;;4986720;28;20138;-74
2023/09/27 09:12:45;;;;;;;0.03;0.03;;;;;;;;;;4994152;28;20527;-75
2023/09/27 09:15:26;;;;;;;7.90;7.47;;;;;;;;;;4991040;28;20045;-74
2023/09/27 09:17:57;;;;;;;0.10;0.10;;;;;;;;;;4996328;28;20504;-74
2023/09/27 09:20:32;;;;;;;0.88;0.88;;;;;;;;;;4995320;28;20518;-74
2023/09/27 09:23:12;;;;;;;12.25;11.50;;;;;;;;;;4986972;28;20058;-75
2023/09/27 09:25:43;;;;;;;0.63;0.63;;;;;;;;;;5004777;28;20073;-74
2023/09/27 09:28:13;;;;;;;0.20;0.20;;;;;;;;;;4993606;28;20058;-75
2023/09/27 09:30:43;;;;;;;0.55;0.52;;;;;;;;;;4995911;28;20073;-74
2023/09/27 09:33:17;;;;;;;1.10;1.10;;;;;;;;;;4991123;28;20042;-73
2023/09/27 09:35:44;;;;;;;;;;;;;;;;;;5002474;28;20054;-71
2023/09/27 09:38:12;;;;;;;113.28;105.43;;;;;;;;;;4991761;28;20355;-70
2023/09/27 09:40:52;;;;;;;43.92;40.85;;;;;;;;;;5001211;28;20061;-70
2023/09/27 09:43:29;;;;;;;2.53;2.40;;;;;;;;;;4990309;28;20050;-73
2023/09/27 09:45:57;;;;;;;0.75;0.75;;;;;;;;;;4997157;28;20046;-74
2023/09/27 09:48:26;;;;;;;0.00;0.00;;;;;;;;;;4997904;28;20089;-74
2023/09/27 09:51:02;;;;;;;0.70;0.70;;;;;;;;;;4988163;28;20050;-73
2023/09/27 09:53:29;;;;;;;5.93;5.45;;;;;;;;;;4986510;28;20046;-73
2023/09/27 09:56:03;;;;;;;0.65;0.35;;;;;;;;;;4990647;28;20061;-74
2023/09/27 09:58:36;;;;;;;0.10;0.10;;;;;;;;;;4990234;28;20324;-75
2023/09/27 10:01:04;;;;;;;0.10;0.10;;;;;;;;;;4991422;28;20502;-75
2023/09/27 10:03:33;;;;;;;0.00;0.00;;;;;;;;;;4981476;28;20093;-76
2023/09/27 10:06:02;;;;;;;6.25;5.90;;;;;;;;;;4991212;28;20046;-75
2023/09/27 10:08:38;;;;;;;0.20;0.20;;;;;;;;;;4993653;28;20053;-75
2023/09/27 10:11:06;;;;;;;53.95;50.22;;;;;;;;;;4985868;28;20049;-74
2023/09/27 10:13:39;;;;;;;0.00;0.00;;;;;;;;;;5001763;28;20065;-75
2023/09/27 10:16:07;;;;;;;0.00;0.00;;;;;;;;;;4991642;28;20069;-75
2023/09/27 10:18:38;;;;;;;0.08;0.08;;;;;;;;;;5001555;28;20046;-75
2023/09/27 10:21:07;;;;;;;1.60;1.23;;;;;;;;;;4987842;28;20062;-74
2023/09/27 10:23:52;;;;;;;0.52;0.45;;;;;;;;;;4986313;28;20555;-75
2023/09/27 10:26:31;;;;;;;0.00;0.00;;;;;;;;;;4982505;28;20432;-75
2023/09/27 10:29:13;;;;;;;0.77;0.77;;;;;;;;;;4998251;28;20476;-74
2023/09/27 10:31:56;;;;;;;0.90;0.22;;;;;;;;;;4990868;28;20049;-74
2023/09/27 10:34:36;;;;;;;0.00;0.00;;;;;;;;;;4991498;28;20096;-74
2023/09/27 10:37:03;;;;;;;0.50;0.50;;;;;;;;;;4993744;28;20046;-72
2023/09/27 10:40:04;;;;;;;1.45;0.77;;;;;;;;;;4991658;28;20314;-73
2023/09/27 10:42:42;;;;;;;0.00;0.00;;;;;;;;;;4992049;28;20129;-75
2023/09/27 10:45:10;;;;;;;0.00;0.00;;;;;;;;;;4986556;28;20519;-75
2023/09/27 10:47:38;;;;;;;0.20;0.20;;;;;;;;;;4991181;28;20046;-74
2023/09/27 10:50:06;;;;;;;0.10;0.10;;;;;;;;;;4986600;28;20419;-74
2023/09/27 10:52:33;;;;;;;0.22;0.20;;;;;;;;;;4989849;28;20517;-74
2023/09/27 10:55:11;;;;;;;0.10;0.10;;;;;;;;;;4989697;28;20623;-74
2023/09/27 10:57:40;;;;;;;0.00;0.00;;;;;;;;;;4988547;28;20520;-74
2023/09/27 11:00:11;;;;;;;0.20;0.20;;;;;;;;;;4984238;28;20140;-74
2023/09/27 11:02:38;;;;;;;0.00;0.00;;;;;;;;;;4987355;28;20085;-75
2023/09/27 11:05:07;;;;;;;0.10;0.10;;;;;;;;;;4987502;28;20060;-74
2023/09/27 11:08:04;;;;;;;0.55;0.55;;;;;;;;;;4983031;28;20652;-75
2023/09/27 11:10:33;;;;;;;0.20;0.20;;;;;;;;;;4977916;28;20041;-75
2023/09/27 11:13:13;;;;;;;0.20;0.20;;;;;;;;;;4990269;28;20420;-75
2023/09/27 11:15:42;;;;;;;7.15;6.60;;;;;;;;;;4984789;28;20109;-76
2023/09/27 11:18:12;;;;;;;0.00;0.00;;;;;;;;;;4999140;28;20057;-75
2023/09/27 11:20:40;;;;;;;14.80;13.27;;;;;;;;;;4993399;28;20050;-75
2023/09/27 11:23:08;;;;;;;0.00;0.00;;;;;;;;;;4998131;28;20507;-75
2023/09/27 11:25:37;;;;;;;0.77;0.77;;;;;;;;;;4993140;28;20070;-76
2023/09/27 11:28:05;;;;;;;1.27;1.17;;;;;;;;;;4983688;28;20125;-76
2023/09/27 11:30:34;;;;;;;0.10;0.10;;;;;;;;;;4987757;28;20057;-74
2023/09/27 11:33:06;;;;;;;0.00;0.00;;;;;;;;;;4993200;28;20083;-75
2023/09/27 11:35:34;;;;;;;0.17;0.17;;;;;;;;;;4986133;28;20112;-75
2023/09/27 11:38:24;;;;;;;0.00;0.00;;;;;;;;;;4993736;28;20064;-76
2023/09/27 11:40:53;;;;;;;0.28;0.28;;;;;;;;;;4989867;28;20469;-76
2023/09/27 11:43:21;;;;;;;0.30;0.30;;;;;;;;;;4986736;28;20050;-75
2023/09/27 11:45:49;;;;;;;0.70;0.70;;;;;;;;;;4984780;28;20046;-75
2023/09/27 11:48:23;;;;;;;5.07;4.78;;;;;;;;;;4987444;28;20408;-75
2023/09/27 11:50:51;;;;;;;0.00;0.00;;;;;;;;;;4986467;28;20149;-75
2023/09/27 11:53:18;;;;;;;0.20;0.20;;;;;;;;;;4987094;28;20058;-73
2023/09/27 11:55:46;;;;;;;6.53;6.13;;;;;;;;;;4985282;28;20141;-74
2023/09/27 11:58:13;;;;;;;0.00;0.00;;;;;;;;;;4989785;28;20414;-75
2023/09/27 12:00:41;;;;;;;3.42;0.63;;;;;;;;;;4987825;28;20137;-73
2023/09/27 12:03:10;;;;;;;16.98;15.52;;;;;;;;;;4991356;28;20452;-75
2023/09/27 12:05:38;;;;;;;0.10;0.10;;;;;;;;;;4983187;28;20512;-76
2023/09/27 12:08:07;;;;;;;19.30;17.75;;;;;;;;;;4986063;28;20046;-75
2023/09/27 12:10:34;;;;;;;1.10;1.10;;;;;;;;;;4987040;28;20058;-76
2023/09/27 12:13:02;;;;;;;0.20;0.20;;;;;;;;;;4990594;28;20042;-75
2023/09/27 12:15:29;;;;;;;0.08;0.08;;;;;;;;;;4986578;28;20157;-75
2023/09/27 12:17:57;;;;;;;0.00;0.00;;;;;;;;;;4977911;28;20512;-75
2023/09/27 12:20:27;;;;;;;0.00;0.00;;;;;;;;;;4992167;28;20460;-76
2023/09/27 12:23:08;;;;;;;0.65;0.13;;;;;;;;;;4987931;28;20073;-75
2023/09/27 12:25:37;;;;;;;0.20;0.20;;;;;;;;;;4994370;28;20069;-76
2023/09/27 12:28:04;;;;;;;0.13;0.13;;;;;;;;;;4989054;28;20111;-73
2023/09/27 12:30:32;;;;;;;0.00;0.00;;;;;;;;;;4990183;28;20068;-75
2023/09/27 12:32:59;;;;;;;0.00;0.00;;;;;;;;;;4991155;28;20519;-73
2023/09/27 12:35:27;;;;;;;0.43;0.43;;;;;;;;;;4986449;28;20120;-73
2023/09/27 12:37:54;;;;;;;0.17;0.17;;;;;;;;;;4996338;28;20072;-74
2023/09/27 12:40:24;;;;;;;0.15;0.15;;;;;;;;;;4997114;28;20038;-74
2023/09/27 12:42:51;;;;;;;0.00;0.00;;;;;;;;;;4997001;28;20132;-74
2023/09/27 12:45:19;;;;;;;0.00;0.00;;;;;;;;;;4995937;28;20038;-74
2023/09/27 12:47:46;;;;;;;0.08;0.08;;;;;;;;;;4992684;28;20526;-74
2023/09/27 12:50:15;;;;;;;1.08;0.10;;;;;;;;;;4990289;28;20045;-74
2023/09/27 12:52:43;;;;;;;12.20;10.43;;;;;;;;;;4997392;28;20049;-75
2023/09/27 12:55:11;;;;;;;0.00;0.00;;;;;;;;;;4991251;28;20050;-74
2023/09/27 12:57:38;;;;;;;0.10;0.10;;;;;;;;;;4990213;28;20046;-73
2023/09/27 13:00:08;;;;;;;0.28;0.28;;;;;;;;;;4997225;28;20396;-75
2023/09/27 13:02:37;;;;;;;0.00;0.00;;;;;;;;;;4991182;28;20046;-74
2023/09/27 13:05:04;;;;;;;0.00;0.00;;;;;;;;;;4990207;28;20061;-74
2023/09/27 13:07:32;;;;;;;0.03;0.03;;;;;;;;;;4983569;28;20038;-74
2023/09/27 13:09:59;;;;;;;0.10;0.10;;;;;;;;;;4991102;28;20124;-74
2023/09/27 13:12:27;;;;;;;0.00;0.00;;;;;;;;;;4999312;28;20456;-73
2023/09/27 13:14:56;;;;;;;0.17;0.17;;;;;;;;;;4997961;28;20104;-74
2023/09/27 13:17:24;;;;;;;1.33;1.33;;;;;;;;;;4998273;28;20058;-73
2023/09/27 13:19:51;;;;;;;0.28;0.28;;;;;;;;;;4999626;28;20051;-75
2023/09/27 13:22:20;;;;;;;0.10;0.10;;;;;;;;;;4991685;28;20472;-74
2023/09/27 13:24:48;;;;;;;0.00;0.00;;;;;;;;;;4991907;28;20054;-73
2023/09/27 13:27:15;;;;;;;0.00;0.00;;;;;;;;;;4990151;28;20038;-74
2023/09/27 13:29:43;;;;;;;0.00;0.00;;;;;;;;;;4994462;28;20464;-74
2023/09/27 13:32:12;;;;;;;0.10;0.10;;;;;;;;;;5005134;28;20058;-74
2023/09/27 13:34:40;;;;;;;0.00;0.00;;;;;;;;;;4996161;28;20046;-74
2023/09/27 13:37:07;;;;;;;0.43;0.43;;;;;;;;;;4991812;28;20063;-74
2023/09/27 13:39:35;;;;;;;0.85;0.47;;;;;;;;;;4989731;28;20053;-73
2023/09/27 13:42:03;;;;;;;0.00;0.00;;;;;;;;;;4994470;28;20061;-74
2023/09/27 13:44:30;;;;;;;0.20;0.20;;;;;;;;;;4991955;28;20055;-74
2023/09/27 13:46:58;;;;;;;0.05;0.05;;;;;;;;;;4995186;28;20609;-74
2023/09/27 13:49:26;;;;;;;0.00;0.00;;;;;;;;;;4993570;28;20084;-74
2023/09/27 13:51:53;;;;;;;0.00;0.00;;;;;;;;;;4996381;28;20058;-74
2023/09/27 13:54:21;;;;;;;0.13;0.13;;;;;;;;;;4989394;28;20046;-73
2023/09/27 13:56:48;;;;;;;0.00;0.00;;;;;;;;;;5000380;28;20057;-74
2023/09/27 13:59:16;;;;;;;0.20;0.20;;;;;;;;;;4999117;28;20165;-74
2023/09/27 14:01:44;;;;;;;0.00;0.00;;;;;;;;;;4992527;28;20053;-74
2023/09/27 14:04:12;;;;;;;0.00;0.00;;;;;;;;;;4994426;28;20104;-74
2023/09/27 14:06:40;;;;;;;0.00;0.00;;;;;;;;;;4981346;28;20339;-74
2023/09/27 14:09:08;;;;;;;0.00;0.00;;;;;;;;;;4990970;28;20046;-74
2023/09/27 14:11:35;;;;;;;0.00;0.00;;;;;;;;;;4999064;28;20056;-73
2023/09/27 14:14:03;;;;;;;0.00;0.00;;;;;;;;;;4993040;28;20057;-73
2023/09/27 14:16:31;;;;;;;0.10;0.10;;;;;;;;;;4987049;28;20046;-74
2023/09/27 14:18:59;;;;;;;0.00;0.00;;;;;;;;;;4988068;28;20141;-74
2023/09/27 14:21:26;;;;;;;0.55;0.40;;;;;;;;;;4993321;28;20381;-74
2023/09/27 14:23:54;;;;;;;0.20;0.20;;;;;;;;;;4992797;28;20051;-73
2023/09/27 14:26:22;;;;;;;1.58;0.40;;;;;;;;;;4990893;28;20397;-74
2023/09/27 14:28:49;;;;;;;0.00;0.00;;;;;;;;;;4981785;28;20496;-74
2023/09/27 14:31:17;;;;;;;14.00;12.82;;;;;;;;;;4994373;28;20508;-74
2023/09/27 14:33:44;;;;;;;0.17;0.17;;;;;;;;;;4993245;28;20050;-74
2023/09/27 14:36:12;;;;;;;0.10;0.10;;;;;;;;;;4993127;28;20046;-74
2023/09/27 14:38:40;;;;;;;0.13;0.13;;;;;;;;;;4993896;28;20144;-74
2023/09/27 14:41:10;;;;;;;0.20;0.20;;;;;;;;;;4988694;28;20044;-74
2023/09/27 14:43:38;;;;;;;0.05;0.05;;;;;;;;;;4990372;28;20042;-74
2023/09/27 14:46:12;;;;;;;0.15;0.15;;;;;;;;;;4985314;28;20038;-74
2023/09/27 14:48:40;;;;;;;0.20;0.20;;;;;;;;;;4993291;28;20322;-76
2023/09/27 14:51:11;;;;;;;0.00;0.00;;;;;;;;;;4989551;28;20113;-75
2023/09/27 14:53:40;;;;;;;0.10;0.10;;;;;;;;;;4999387;28;20128;-75